sensor_id;sensor_type;location;lat;lon;timestamp;pressure;altitude;pressure_sealevel;temperature;humidity
15382;BME280;7789;51.364;12.358;2023-04-28T00:01:07;100560.19;;;9.18;55.81
15382;BME280;7789;51.364;12.358;2023-04-28T00:06:10;100553.03;;;9.09;55.37
15382;BME280;7789;51.364;12.358;2023-04-28T00:11:14;100556.09;;;9.03;55.71
15382;BME280;7789;51.364;12.358;2023-04-28T00:16:20;100553.00;;;8.98;55.96
15382;BME280;7789;51.364;12.358;2023-04-28T00:21:24;100550.72;;;8.94;55.88
15382;BME280;7789;51.364;12.358;2023-04-28T00:26:29;100539.91;;;8.87;57.07
15382;BME280;7789;51.364;12.358;2023-04-28T00:31:34;100537.63;;;8.83;56.53
15382;BME280;7789;51.364;12.358;2023-04-28T00:36:38;100532.75;;;8.78;57.38
15382;BME280;7789;51.364;12.358;2023-04-28T00:41:42;100531.28;;;8.74;56.84
15382;BME280;7789;51.364;12.358;2023-04-28T00:46:48;100525.09;;;8.64;57.40
15382;BME280;7789;51.364;12.358;2023-04-28T00:51:52;100520.28;;;8.58;58.17
15382;BME280;7789;51.364;12.358;2023-04-28T00:56:57;100518.13;;;8.52;58.54
15382;BME280;7789;51.364;12.358;2023-04-28T01:02:04;100519.31;;;8.48;58.86
15382;BME280;7789;51.364;12.358;2023-04-28T01:07:08;100513.25;;;8.48;58.48
15382;BME280;7789;51.364;12.358;2023-04-28T01:12:14;100500.66;;;8.42;58.96
15382;BME280;7789;51.364;12.358;2023-04-28T01:17:20;100496.50;;;8.39;58.88
15382;BME280;7789;51.364;12.358;2023-04-28T01:22:24;100495.91;;;8.36;58.87
15382;BME280;7789;51.364;12.358;2023-04-28T01:27:29;100488.91;;;8.36;59.48
15382;BME280;7789;51.364;12.358;2023-04-28T01:32:37;100475.59;;;8.28;59.24
15382;BME280;7789;51.364;12.358;2023-04-28T01:37:41;100477.50;;;8.26;59.54
15382;BME280;7789;51.364;12.358;2023-04-28T01:42:47;100483.28;;;8.30;59.32
15382;BME280;7789;51.364;12.358;2023-04-28T01:47:50;100476.31;;;8.30;59.67
15382;BME280;7789;51.364;12.358;2023-04-28T01:52:53;100468.91;;;8.37;60.71
15382;BME280;7789;51.364;12.358;2023-04-28T01:58:00;100473.28;;;8.36;60.31
15382;BME280;7789;51.364;12.358;2023-04-28T02:03:04;100458.69;;;8.34;60.25
15382;BME280;7789;51.364;12.358;2023-04-28T02:08:08;100442.75;;;8.38;60.53
15382;BME280;7789;51.364;12.358;2023-04-28T02:13:15;100445.78;;;8.32;60.40
15382;BME280;7789;51.364;12.358;2023-04-28T02:18:19;100443.06;;;8.34;60.40
15382;BME280;7789;51.364;12.358;2023-04-28T02:23:23;100436.81;;;8.36;60.10
15382;BME280;7789;51.364;12.358;2023-04-28T02:28:28;100429.00;;;8.36;61.37
15382;BME280;7789;51.364;12.358;2023-04-28T02:33:32;100419.53;;;8.35;61.11
15382;BME280;7789;51.364;12.358;2023-04-28T02:38:36;100413.69;;;8.32;61.59
15382;BME280;7789;51.364;12.358;2023-04-28T02:43:41;100419.03;;;8.30;61.34
15382;BME280;7789;51.364;12.358;2023-04-28T02:48:45;100414.41;;;8.34;61.37
15382;BME280;7789;51.364;12.358;2023-04-28T02:53:48;100411.63;;;8.37;61.52
15382;BME280;7789;51.364;12.358;2023-04-28T02:58:54;100410.94;;;8.46;60.24
15382;BME280;7789;51.364;12.358;2023-04-28T03:03:57;100404.47;;;8.51;60.78
15382;BME280;7789;51.364;12.358;2023-04-28T03:09:01;100410.06;;;8.58;59.93
15382;BME280;7789;51.364;12.358;2023-04-28T03:14:07;100398.91;;;8.56;60.89
15382;BME280;7789;51.364;12.358;2023-04-28T03:19:10;100396.78;;;8.61;59.96
15382;BME280;7789;51.364;12.358;2023-04-28T03:24:14;100379.59;;;8.58;60.86
15382;BME280;7789;51.364;12.358;2023-04-28T03:29:19;100366.00;;;8.55;61.28
15382;BME280;7789;51.364;12.358;2023-04-28T03:34:26;100368.22;;;8.48;61.32
15382;BME280;7789;51.364;12.358;2023-04-28T03:39:30;100364.91;;;8.46;61.33
15382;BME280;7789;51.364;12.358;2023-04-28T03:44:36;100344.06;;;8.46;62.16
15382;BME280;7789;51.364;12.358;2023-04-28T03:49:41;100341.78;;;8.42;61.72
15382;BME280;7789;51.364;12.358;2023-04-28T03:54:44;100324.88;;;8.47;62.28
15382;BME280;7789;51.364;12.358;2023-04-28T03:59:49;100324.75;;;8.49;61.86
15382;BME280;7789;51.364;12.358;2023-04-28T04:04:53;100334.72;;;8.55;61.14
15382;BME280;7789;51.364;12.358;2023-04-28T04:09:58;100322.19;;;8.60;62.05
15382;BME280;7789;51.364;12.358;2023-04-28T04:15:08;100322.66;;;8.65;61.70
15382;BME280;7789;51.364;12.358;2023-04-28T04:20:12;100323.03;;;8.71;61.54
15382;BME280;7789;51.364;12.358;2023-04-28T04:25:19;100317.38;;;8.77;61.38
15382;BME280;7789;51.364;12.358;2023-04-28T04:30:25;100313.97;;;8.88;61.14
15382;BME280;7789;51.364;12.358;2023-04-28T04:35:31;100305.19;;;9.00;60.34
15382;BME280;7789;51.364;12.358;2023-04-28T04:40:35;100299.53;;;9.06;60.58
15382;BME280;7789;51.364;12.358;2023-04-28T04:45:40;100298.25;;;9.11;60.44
15382;BME280;7789;51.364;12.358;2023-04-28T04:50:44;100290.63;;;9.19;60.10
15382;BME280;7789;51.364;12.358;2023-04-28T04:55:47;100278.91;;;9.24;60.35
15382;BME280;7789;51.364;12.358;2023-04-28T05:00:55;100286.38;;;9.29;60.43
15382;BME280;7789;51.364;12.358;2023-04-28T05:05:58;100284.09;;;9.35;60.68
15382;BME280;7789;51.364;12.358;2023-04-28T05:11:07;100283.63;;;9.41;59.65
15382;BME280;7789;51.364;12.358;2023-04-28T05:16:16;100279.47;;;9.50;59.99
15382;BME280;7789;51.364;12.358;2023-04-28T05:21:27;100290.63;;;9.63;59.73
15382;BME280;7789;51.364;12.358;2023-04-28T05:26:34;100285.94;;;9.77;59.74
15382;BME280;7789;51.364;12.358;2023-04-28T05:31:52;100273.91;;;9.97;59.14
15382;BME280;7789;51.364;12.358;2023-04-28T05:36:56;100262.75;;;10.47;58.47
15382;BME280;7789;51.364;12.358;2023-04-28T05:42:04;100263.56;;;10.58;57.09
15382;BME280;7789;51.364;12.358;2023-04-28T05:47:12;100254.72;;;10.80;56.97
15382;BME280;7789;51.364;12.358;2023-04-28T05:52:17;100246.47;;;11.04;56.58
15382;BME280;7789;51.364;12.358;2023-04-28T05:57:22;100252.13;;;11.49;55.89
15382;BME280;7789;51.364;12.358;2023-04-28T06:02:30;100248.78;;;12.15;54.70
15382;BME280;7789;51.364;12.358;2023-04-28T06:07:34;100240.81;;;14.84;50.33
15382;BME280;7789;51.364;12.358;2023-04-28T06:12:38;100244.91;;;16.11;47.46
15382;BME280;7789;51.364;12.358;2023-04-28T06:17:43;100233.09;;;16.39;46.49
15382;BME280;7789;51.364;12.358;2023-04-28T06:22:46;100237.09;;;15.69;46.44
15382;BME280;7789;51.364;12.358;2023-04-28T06:27:50;100235.09;;;17.07;44.73
15382;BME280;7789;51.364;12.358;2023-04-28T06:32:56;100231.00;;;16.96;43.34
15382;BME280;7789;51.364;12.358;2023-04-28T06:38:01;100229.09;;;16.75;44.36
15382;BME280;7789;51.364;12.358;2023-04-28T06:43:05;100224.16;;;16.48;44.62
15382;BME280;7789;51.364;12.358;2023-04-28T06:48:10;100222.19;;;16.18;45.09
15382;BME280;7789;51.364;12.358;2023-04-28T06:53:19;100216.53;;;15.89;45.81
15382;BME280;7789;51.364;12.358;2023-04-28T06:58:24;100216.66;;;15.71;45.61
15382;BME280;7789;51.364;12.358;2023-04-28T07:03:29;100200.59;;;15.33;46.13
15382;BME280;7789;51.364;12.358;2023-04-28T07:08:36;100202.59;;;15.47;46.78
15382;BME280;7789;51.364;12.358;2023-04-28T07:13:39;100199.78;;;15.32;46.50
15382;BME280;7789;51.364;12.358;2023-04-28T07:18:45;100200.09;;;15.29;47.23
15382;BME280;7789;51.364;12.358;2023-04-28T07:23:48;100189.38;;;15.31;47.28
15382;BME280;7789;51.364;12.358;2023-04-28T07:28:52;100189.38;;;15.31;47.47
15382;BME280;7789;51.364;12.358;2023-04-28T07:34:09;100178.44;;;15.67;47.65
15382;BME280;7789;51.364;12.358;2023-04-28T07:39:14;100187.06;;;15.93;46.79
15382;BME280;7789;51.364;12.358;2023-04-28T07:44:17;100190.69;;;16.16;46.39
15382;BME280;7789;51.364;12.358;2023-04-28T07:49:23;100183.63;;;16.41;45.83
15382;BME280;7789;51.364;12.358;2023-04-28T07:54:27;100179.38;;;16.94;45.77
15382;BME280;7789;51.364;12.358;2023-04-28T07:59:30;100172.28;;;17.63;45.38
15382;BME280;7789;51.364;12.358;2023-04-28T08:04:37;100158.13;;;17.79;44.56
15382;BME280;7789;51.364;12.358;2023-04-28T08:09:40;100157.41;;;17.62;45.30
15382;BME280;7789;51.364;12.358;2023-04-28T08:14:48;100162.63;;;17.48;44.77
15382;BME280;7789;51.364;12.358;2023-04-28T08:19:53;100159.63;;;17.51;44.78
15382;BME280;7789;51.364;12.358;2023-04-28T08:24:56;100171.41;;;17.32;44.85
15382;BME280;7789;51.364;12.358;2023-04-28T08:30:00;100168.19;;;17.22;45.21
15382;BME280;7789;51.364;12.358;2023-04-28T08:35:08;100170.41;;;17.33;45.17
15382;BME280;7789;51.364;12.358;2023-04-28T08:40:12;100172.34;;;17.09;45.37
15382;BME280;7789;51.364;12.358;2023-04-28T08:45:16;100166.78;;;17.04;45.37
15382;BME280;7789;51.364;12.358;2023-04-28T08:50:21;100181.16;;;16.93;46.22
15382;BME280;7789;51.364;12.358;2023-04-28T08:55:25;100179.13;;;16.65;46.81
15382;BME280;7789;51.364;12.358;2023-04-28T09:00:30;100186.72;;;16.60;47.71
15382;BME280;7789;51.364;12.358;2023-04-28T09:05:35;100191.84;;;16.46;49.45
15382;BME280;7789;51.364;12.358;2023-04-28T09:10:39;100178.13;;;16.34;49.48
15382;BME280;7789;51.364;12.358;2023-04-28T09:15:44;100171.22;;;16.33;50.10
15382;BME280;7789;51.364;12.358;2023-04-28T09:20:48;100173.38;;;16.22;50.85
15382;BME280;7789;51.364;12.358;2023-04-28T09:25:58;100170.41;;;16.25;52.43
15382;BME280;7789;51.364;12.358;2023-04-28T09:31:02;100176.34;;;16.19;53.68
15382;BME280;7789;51.364;12.358;2023-04-28T09:36:07;100175.00;;;16.31;54.54
15382;BME280;7789;51.364;12.358;2023-04-28T09:41:11;100172.38;;;16.31;54.73
15382;BME280;7789;51.364;12.358;2023-04-28T09:46:27;100172.53;;;16.21;56.54
15382;BME280;7789;51.364;12.358;2023-04-28T09:51:32;100167.59;;;16.02;56.78
15382;BME280;7789;51.364;12.358;2023-04-28T09:56:36;100177.00;;;16.13;57.92
15382;BME280;7789;51.364;12.358;2023-04-28T10:01:42;100177.84;;;16.13;59.22
15382;BME280;7789;51.364;12.358;2023-04-28T10:06:49;100168.75;;;16.00;59.16
15382;BME280;7789;51.364;12.358;2023-04-28T10:11:53;100171.06;;;15.95;59.85
15382;BME280;7789;51.364;12.358;2023-04-28T10:16:58;100164.31;;;15.84;59.50
15382;BME280;7789;51.364;12.358;2023-04-28T10:22:13;100161.31;;;15.71;61.88
15382;BME280;7789;51.364;12.358;2023-04-28T10:27:28;100145.16;;;15.74;62.50
15382;BME280;7789;51.364;12.358;2023-04-28T10:32:32;100150.94;;;15.78;62.75
15382;BME280;7789;51.364;12.358;2023-04-28T10:38:07;100132.50;;;15.86;63.67
15382;BME280;7789;51.364;12.358;2023-04-28T10:43:12;100126.72;;;16.06;63.96
15382;BME280;7789;51.364;12.358;2023-04-28T10:48:15;100129.19;;;16.16;65.19
15382;BME280;7789;51.364;12.358;2023-04-28T10:53:20;100117.16;;;16.29;65.11
15382;BME280;7789;51.364;12.358;2023-04-28T10:58:30;100118.97;;;16.13;65.43
15382;BME280;7789;51.364;12.358;2023-04-28T11:03:47;100119.13;;;16.03;66.66
15382;BME280;7789;51.364;12.358;2023-04-28T11:08:55;100117.50;;;15.70;67.52
15382;BME280;7789;51.364;12.358;2023-04-28T11:14:29;100118.97;;;15.57;69.76
15382;BME280;7789;51.364;12.358;2023-04-28T11:19:34;100120.94;;;15.55;70.03
15382;BME280;7789;51.364;12.358;2023-04-28T11:24:41;100109.09;;;15.59;70.62
15382;BME280;7789;51.364;12.358;2023-04-28T11:29:57;100105.28;;;15.53;71.15
15382;BME280;7789;51.364;12.358;2023-04-28T11:35:05;100105.13;;;15.55;72.27
15382;BME280;7789;51.364;12.358;2023-04-28T11:40:14;100101.84;;;15.61;72.74
15382;BME280;7789;51.364;12.358;2023-04-28T11:45:20;100092.31;;;15.68;72.60
15382;BME280;7789;51.364;12.358;2023-04-28T11:50:34;100080.59;;;15.62;73.49
15382;BME280;7789;51.364;12.358;2023-04-28T11:55:39;100081.44;;;15.71;73.14
15382;BME280;7789;51.364;12.358;2023-04-28T12:00:44;100070.88;;;15.79;72.58
15382;BME280;7789;51.364;12.358;2023-04-28T12:05:48;100059.31;;;15.96;72.33
15382;BME280;7789;51.364;12.358;2023-04-28T12:16:36;100048.78;;;16.58;70.94
15382;BME280;7789;51.364;12.358;2023-04-28T12:21:41;100045.22;;;16.81;71.33
15382;BME280;7789;51.364;12.358;2023-04-28T12:26:45;100040.06;;;16.88;69.77
15382;BME280;7789;51.364;12.358;2023-04-28T12:31:51;100029.78;;;16.93;70.57
15382;BME280;7789;51.364;12.358;2023-04-28T12:36:55;100031.19;;;17.11;69.95
15382;BME280;7789;51.364;12.358;2023-04-28T12:41:58;100027.41;;;17.06;68.66
15382;BME280;7789;51.364;12.358;2023-04-28T12:47:06;100028.69;;;16.87;68.82
15382;BME280;7789;51.364;12.358;2023-04-28T12:52:10;100027.16;;;16.93;69.18
15382;BME280;7789;51.364;12.358;2023-04-28T12:57:13;100021.22;;;16.91;69.47
15382;BME280;7789;51.364;12.358;2023-04-28T13:02:19;100022.59;;;17.09;69.21
15382;BME280;7789;51.364;12.358;2023-04-28T13:07:23;100008.88;;;17.14;69.50
15382;BME280;7789;51.364;12.358;2023-04-28T13:12:27;100008.66;;;17.23;69.68
15382;BME280;7789;51.364;12.358;2023-04-28T13:17:32;99991.31;;;17.21;69.32
15382;BME280;7789;51.364;12.358;2023-04-28T13:22:36;99989.03;;;17.18;69.75
15382;BME280;7789;51.364;12.358;2023-04-28T13:27:40;99973.47;;;17.23;69.28
15382;BME280;7789;51.364;12.358;2023-04-28T13:32:45;99974.56;;;17.28;68.67
15382;BME280;7789;51.364;12.358;2023-04-28T13:37:49;99968.00;;;17.24;68.93
15382;BME280;7789;51.364;12.358;2023-04-28T13:42:57;99959.03;;;17.11;69.55
15382;BME280;7789;51.364;12.358;2023-04-28T13:48:03;99953.94;;;17.09;69.85
15382;BME280;7789;51.364;12.358;2023-04-28T13:53:06;99953.53;;;16.98;69.33
15382;BME280;7789;51.364;12.358;2023-04-28T13:58:10;99958.63;;;16.99;68.88
15382;BME280;7789;51.364;12.358;2023-04-28T14:03:14;99945.97;;;16.95;68.45
15382;BME280;7789;51.364;12.358;2023-04-28T14:08:19;99942.22;;;16.81;68.48
15382;BME280;7789;51.364;12.358;2023-04-28T14:13:23;99935.63;;;16.85;68.02
15382;BME280;7789;51.364;12.358;2023-04-28T14:18:29;99930.34;;;16.85;68.08
15382;BME280;7789;51.364;12.358;2023-04-28T14:23:34;99930.00;;;16.88;67.95
15382;BME280;7789;51.364;12.358;2023-04-28T14:28:42;99931.22;;;16.78;68.44
15382;BME280;7789;51.364;12.358;2023-04-28T14:33:47;99924.72;;;16.88;68.65
15382;BME280;7789;51.364;12.358;2023-04-28T14:38:50;99915.25;;;16.94;68.35
15382;BME280;7789;51.364;12.358;2023-04-28T14:43:54;99912.53;;;17.02;68.06
15382;BME280;7789;51.364;12.358;2023-04-28T14:48:58;99906.75;;;17.06;68.08
15382;BME280;7789;51.364;12.358;2023-04-28T14:54:03;99911.94;;;17.14;67.76
15382;BME280;7789;51.364;12.358;2023-04-28T14:59:07;99898.56;;;17.16;68.00
15382;BME280;7789;51.364;12.358;2023-04-28T15:04:13;99904.75;;;17.08;68.09
15382;BME280;7789;51.364;12.358;2023-04-28T15:09:17;99901.22;;;16.93;68.25
15382;BME280;7789;51.364;12.358;2023-04-28T15:14:21;99890.81;;;16.92;68.26
15382;BME280;7789;51.364;12.358;2023-04-28T15:19:25;99887.84;;;16.95;68.87
15382;BME280;7789;51.364;12.358;2023-04-28T15:24:29;99885.66;;;16.98;68.74
15382;BME280;7789;51.364;12.358;2023-04-28T15:29:36;99883.56;;;16.94;68.57
15382;BME280;7789;51.364;12.358;2023-04-28T15:34:41;99880.19;;;16.85;68.99
15382;BME280;7789;51.364;12.358;2023-04-28T15:39:45;99867.84;;;16.78;69.10
15382;BME280;7789;51.364;12.358;2023-04-28T15:44:48;99857.81;;;16.74;69.22
15382;BME280;7789;51.364;12.358;2023-04-28T15:49:53;99861.47;;;16.73;69.30
15382;BME280;7789;51.364;12.358;2023-04-28T15:54:57;99855.41;;;16.64;69.59
15382;BME280;7789;51.364;12.358;2023-04-28T16:00:01;99854.00;;;16.54;70.35
15382;BME280;7789;51.364;12.358;2023-04-28T16:05:12;99853.81;;;16.55;70.42
15382;BME280;7789;51.364;12.358;2023-04-28T16:10:20;99854.19;;;16.52;70.17
15382;BME280;7789;51.364;12.358;2023-04-28T16:15:24;99851.13;;;16.41;70.87
15382;BME280;7789;51.364;12.358;2023-04-28T16:20:29;99847.22;;;16.37;70.99
15382;BME280;7789;51.364;12.358;2023-04-28T16:25:32;99853.47;;;16.36;71.47
15382;BME280;7789;51.364;12.358;2023-04-28T16:30:36;99851.50;;;16.30;71.77
15382;BME280;7789;51.364;12.358;2023-04-28T16:35:41;99848.59;;;16.17;71.61
15382;BME280;7789;51.364;12.358;2023-04-28T16:40:45;99837.94;;;16.10;71.65
15382;BME280;7789;51.364;12.358;2023-04-28T16:45:48;99840.03;;;16.15;72.07
15382;BME280;7789;51.364;12.358;2023-04-28T16:50:53;99842.50;;;16.16;72.07
15382;BME280;7789;51.364;12.358;2023-04-28T16:55:57;99840.38;;;16.12;72.14
15382;BME280;7789;51.364;12.358;2023-04-28T17:01:04;99836.94;;;16.11;72.91
15382;BME280;7789;51.364;12.358;2023-04-28T17:06:09;99831.69;;;16.03;72.42
15382;BME280;7789;51.364;12.358;2023-04-28T17:11:15;99834.69;;;16.00;72.78
15382;BME280;7789;51.364;12.358;2023-04-28T17:16:19;99825.16;;;15.91;72.27
15382;BME280;7789;51.364;12.358;2023-04-28T17:21:24;99832.25;;;15.91;71.99
15382;BME280;7789;51.364;12.358;2023-04-28T17:26:30;99821.06;;;15.89;71.96
15382;BME280;7789;51.364;12.358;2023-04-28T17:31:34;99821.22;;;15.87;71.58
15382;BME280;7789;51.364;12.358;2023-04-28T17:36:41;99817.66;;;15.80;72.39
15382;BME280;7789;51.364;12.358;2023-04-28T17:41:45;99830.84;;;15.80;72.34
15382;BME280;7789;51.364;12.358;2023-04-28T17:46:49;99821.94;;;15.73;72.49
15382;BME280;7789;51.364;12.358;2023-04-28T17:51:57;99829.75;;;15.67;73.35
15382;BME280;7789;51.364;12.358;2023-04-28T17:57:03;99822.66;;;15.67;73.11
15382;BME280;7789;51.364;12.358;2023-04-28T18:02:08;99824.66;;;15.57;73.89
15382;BME280;7789;51.364;12.358;2023-04-28T18:07:13;99813.94;;;15.59;75.03
15382;BME280;7789;51.364;12.358;2023-04-28T18:12:17;99821.38;;;15.55;75.42
15382;BME280;7789;51.364;12.358;2023-04-28T18:17:20;99814.31;;;15.48;77.01
15382;BME280;7789;51.364;12.358;2023-04-28T18:22:25;99820.56;;;15.47;77.56
15382;BME280;7789;51.364;12.358;2023-04-28T18:27:30;99821.09;;;15.42;78.76
15382;BME280;7789;51.364;12.358;2023-04-28T18:32:34;99813.00;;;15.44;78.97
15382;BME280;7789;51.364;12.358;2023-04-28T18:37:43;99807.09;;;15.42;81.27
15382;BME280;7789;51.364;12.358;2023-04-28T18:42:46;99798.53;;;15.40;81.60
15382;BME280;7789;51.364;12.358;2023-04-28T18:47:50;99805.81;;;15.38;82.00
15382;BME280;7789;51.364;12.358;2023-04-28T18:52:55;99809.59;;;15.35;83.00
15382;BME280;7789;51.364;12.358;2023-04-28T18:57:58;99812.41;;;15.34;84.31
15382;BME280;7789;51.364;12.358;2023-04-28T19:03:03;99815.19;;;15.32;85.13
15382;BME280;7789;51.364;12.358;2023-04-28T19:08:08;99815.84;;;15.26;86.51
15382;BME280;7789;51.364;12.358;2023-04-28T19:13:12;99810.94;;;15.23;87.44
15382;BME280;7789;51.364;12.358;2023-04-28T19:18:16;99812.56;;;15.24;88.28
15382;BME280;7789;51.364;12.358;2023-04-28T19:23:21;99820.13;;;15.19;89.80
15382;BME280;7789;51.364;12.358;2023-04-28T19:28:25;99816.53;;;15.12;90.10
15382;BME280;7789;51.364;12.358;2023-04-28T19:33:29;99815.38;;;15.15;90.39
15382;BME280;7789;51.364;12.358;2023-04-28T19:38:35;99804.50;;;15.10;92.11
15382;BME280;7789;51.364;12.358;2023-04-28T19:43:41;99804.50;;;15.10;92.70
15382;BME280;7789;51.364;12.358;2023-04-28T19:48:45;99799.91;;;15.12;93.00
15382;BME280;7789;51.364;12.358;2023-04-28T19:53:49;99800.25;;;15.09;93.38
15382;BME280;7789;51.364;12.358;2023-04-28T19:58:53;99790.88;;;15.06;93.83
15382;BME280;7789;51.364;12.358;2023-04-28T20:03:56;99788.59;;;14.95;94.32
15382;BME280;7789;51.364;12.358;2023-04-28T20:09:02;99775.13;;;14.82;95.56
15382;BME280;7789;51.364;12.358;2023-04-28T20:14:06;99770.88;;;14.74;96.44
15382;BME280;7789;51.364;12.358;2023-04-28T20:19:10;99779.75;;;14.73;97.03
15382;BME280;7789;51.364;12.358;2023-04-28T20:24:14;99780.72;;;14.64;98.62
15382;BME280;7789;51.364;12.358;2023-04-28T20:29:18;99798.00;;;14.58;98.82
15382;BME280;7789;51.364;12.358;2023-04-28T20:34:21;99800.13;;;14.63;99.08
15382;BME280;7789;51.364;12.358;2023-04-28T20:39:26;99795.53;;;14.57;100.00
15382;BME280;7789;51.364;12.358;2023-04-28T20:44:30;99802.44;;;14.42;100.00
15382;BME280;7789;51.364;12.358;2023-04-28T20:49:33;99809.16;;;14.44;100.00
15382;BME280;7789;51.364;12.358;2023-04-28T20:54:38;99810.66;;;14.55;100.00
15382;BME280;7789;51.364;12.358;2023-04-28T20:59:44;99805.22;;;14.56;100.00
15382;BME280;7789;51.364;12.358;2023-04-28T21:04:47;99802.91;;;14.61;100.00
15382;BME280;7789;51.364;12.358;2023-04-28T21:09:52;99794.72;;;14.64;100.00
15382;BME280;7789;51.364;12.358;2023-04-28T21:14:55;99790.91;;;14.67;100.00
15382;BME280;7789;51.364;12.358;2023-04-28T21:20:00;99790.94;;;14.59;100.00
15382;BME280;7789;51.364;12.358;2023-04-28T21:25:06;99792.72;;;14.42;100.00
15382;BME280;7789;51.364;12.358;2023-04-28T21:30:10;99790.75;;;14.28;100.00
15382;BME280;7789;51.364;12.358;2023-04-28T21:35:15;99789.09;;;14.27;100.00
15382;BME280;7789;51.364;12.358;2023-04-28T21:40:20;99775.94;;;14.27;100.00
15382;BME280;7789;51.364;12.358;2023-04-28T21:45:23;99767.41;;;14.25;100.00
15382;BME280;7789;51.364;12.358;2023-04-28T21:50:27;99774.13;;;14.20;100.00
15382;BME280;7789;51.364;12.358;2023-04-28T21:55:32;99778.41;;;14.21;100.00
15382;BME280;7789;51.364;12.358;2023-04-28T22:00:38;99782.66;;;14.14;100.00
15382;BME280;7789;51.364;12.358;2023-04-28T22:05:42;99776.88;;;14.02;100.00
15382;BME280;7789;51.364;12.358;2023-04-28T22:10:47;99781.44;;;13.92;100.00
15382;BME280;7789;51.364;12.358;2023-04-28T22:15:51;99767.66;;;13.82;100.00
15382;BME280;7789;51.364;12.358;2023-04-28T22:20:54;99774.38;;;13.85;100.00
15382;BME280;7789;51.364;12.358;2023-04-28T22:25:59;99786.22;;;13.89;100.00
15382;BME280;7789;51.364;12.358;2023-04-28T22:31:02;99773.75;;;13.91;100.00
15382;BME280;7789;51.364;12.358;2023-04-28T22:36:06;99781.97;;;13.88;100.00
15382;BME280;7789;51.364;12.358;2023-04-28T22:41:11;99778.97;;;13.83;100.00
15382;BME280;7789;51.364;12.358;2023-04-28T22:46:14;99768.09;;;13.70;100.00
15382;BME280;7789;51.364;12.358;2023-04-28T22:51:17;99768.09;;;13.70;100.00
15382;BME280;7789;51.364;12.358;2023-04-28T22:56:22;99763.00;;;13.68;100.00
15382;BME280;7789;51.364;12.358;2023-04-28T23:01:25;99766.94;;;13.64;100.00
15382;BME280;7789;51.364;12.358;2023-04-28T23:06:28;99762.97;;;13.60;100.00
15382;BME280;7789;51.364;12.358;2023-04-28T23:11:34;99763.94;;;13.59;100.00
15382;BME280;7789;51.364;12.358;2023-04-28T23:16:37;99748.72;;;13.63;100.00
15382;BME280;7789;51.364;12.358;2023-04-28T23:21:40;99755.94;;;13.69;100.00
15382;BME280;7789;51.364;12.358;2023-04-28T23:26:45;99753.00;;;13.72;100.00
15382;BME280;7789;51.364;12.358;2023-04-28T23:31:48;99755.47;;;13.73;100.00
15382;BME280;7789;51.364;12.358;2023-04-28T23:36:55;99738.72;;;13.74;100.00
15382;BME280;7789;51.364;12.358;2023-04-28T23:42:00;99733.94;;;13.70;100.00
15382;BME280;7789;51.364;12.358;2023-04-28T23:47:03;99745.44;;;13.69;100.00
15382;BME280;7789;51.364;12.358;2023-04-28T23:52:07;99741.53;;;13.73;100.00
15382;BME280;7789;51.364;12.358;2023-04-28T23:57:12;99742.16;;;13.67;100.00
